Time;durP1;ratioP1;P1;durP2;ratioP2;P2;SDS_P1;SDS_P2;PMS_P1;PMS_P2;Temp;Humidity;BMP_temperature;BMP_pressure;BME280_temperature;BME280_humidity;BME280_pressure;Samples;Min_cycle;Max_cycle;Signal;HPM_P1;HPM_P2
2022/05/20 00:00:17;;;;;;;3.65;1.65;;;;;;;;;;4419202;32;20092;-64
2022/05/20 00:02:46;;;;;;;3.37;1.90;;;;;;;;;;4419190;32;20074;-64
2022/05/20 00:05:13;;;;;;;2.70;2.00;;;;;;;;;;4417723;32;20069;-64
2022/05/20 00:07:40;;;;;;;3.72;2.05;;;;;;;;;;4418955;32;20076;-64
2022/05/20 00:10:08;;;;;;;2.03;1.73;;;;;;;;;;4419327;32;20069;-64
2022/05/20 00:12:36;;;;;;;2.08;1.60;;;;;;;;;;4417169;32;20475;-65
2022/05/20 00:15:05;;;;;;;3.37;1.98;;;;;;;;;;4404873;32;20077;-64
2022/05/20 00:17:31;;;;;;;4.10;1.90;;;;;;;;;;4417295;32;20443;-64
2022/05/20 00:19:58;;;;;;;3.47;1.85;;;;;;;;;;4404492;32;20503;-64
2022/05/20 00:22:24;;;;;;;2.80;1.87;;;;;;;;;;4417378;32;20093;-64
2022/05/20 00:27:37;;;;;;;3.87;2.25;;;;;;;;;;4408335;32;20093;-64
2022/05/20 00:30:04;;;;;;;3.20;2.20;;;;;;;;;;4406873;32;20523;-64
2022/05/20 00:32:30;;;;;;;4.12;1.95;;;;;;;;;;4407453;32;20092;-65
2022/05/20 00:34:57;;;;;;;3.80;2.12;;;;;;;;;;4394597;32;20085;-63
2022/05/20 00:37:24;;;;;;;2.67;1.95;;;;;;;;;;4408541;32;20089;-64
2022/05/20 00:39:50;;;;;;;2.55;1.95;;;;;;;;;;4394381;32;20085;-63
2022/05/20 00:42:18;;;;;;;4.12;2.05;;;;;;;;;;4381779;32;20162;-64
2022/05/20 00:44:45;;;;;;;3.62;2.00;;;;;;;;;;4408548;32;20515;-64
2022/05/20 00:47:13;;;;;;;3.40;2.22;;;;;;;;;;4408362;32;20069;-64
2022/05/20 00:49:45;;;;;;;1.87;1.70;;;;;;;;;;4394960;32;20085;-63
2022/05/20 00:52:14;;;;;;;3.17;1.98;;;;;;;;;;4407344;32;20088;-63
2022/05/20 00:54:44;;;;;;;2.58;1.83;;;;;;;;;;4406971;32;20081;-64
2022/05/20 00:57:18;;;;;;;3.28;2.28;;;;;;;;;;4395122;32;20068;-65
2022/05/20 00:59:56;;;;;;;3.20;1.80;;;;;;;;;;4422639;32;20143;-66
2022/05/20 01:02:24;;;;;;;3.62;2.20;;;;;;;;;;4399924;32;20100;-64
2022/05/20 01:04:55;;;;;;;2.72;2.03;;;;;;;;;;4407612;32;20092;-62
2022/05/20 01:07:23;;;;;;;3.85;1.92;;;;;;;;;;4406650;32;20073;-63
2022/05/20 01:09:49;;;;;;;3.72;1.90;;;;;;;;;;4394034;32;20100;-64
2022/05/20 01:12:16;;;;;;;5.93;2.08;;;;;;;;;;4406716;32;20078;-63
2022/05/20 01:14:43;;;;;;;4.68;2.08;;;;;;;;;;4407877;32;20516;-66
2022/05/20 01:17:09;;;;;;;4.45;2.45;;;;;;;;;;4407938;32;20075;-64
2022/05/20 01:19:53;;;;;;;6.90;2.08;;;;;;;;;;4407218;32;20061;-64
2022/05/20 01:22:53;;;;;;;4.75;2.17;;;;;;;;;;4394075;32;20077;-63
2022/05/20 01:25:22;;;;;;;6.12;2.60;;;;;;;;;;4406432;32;20085;-63
2022/05/20 01:27:50;;;;;;;5.03;2.55;;;;;;;;;;4406800;32;20089;-63
2022/05/20 01:30:18;;;;;;;4.95;2.83;;;;;;;;;;4393439;32;20097;-65
2022/05/20 01:32:45;;;;;;;4.93;2.78;;;;;;;;;;4393719;32;20147;-62
2022/05/20 01:35:27;;;;;;;5.03;2.58;;;;;;;;;;4392736;32;20226;-64
2022/05/20 01:37:54;;;;;;;6.25;2.50;;;;;;;;;;4406000;32;20157;-63
2022/05/20 01:40:21;;;;;;;6.57;2.92;;;;;;;;;;4407881;32;20133;-65
2022/05/20 01:43:02;;;;;;;6.37;2.95;;;;;;;;;;4406128;32;20085;-62
2022/05/20 01:45:40;;;;;;;4.53;2.60;;;;;;;;;;4406503;32;20085;-62
2022/05/20 01:48:27;;;;;;;4.43;2.35;;;;;;;;;;4406154;32;20092;-64
2022/05/20 01:50:54;;;;;;;;;;;;;;;;;;4394349;32;20456;-64
2022/05/20 01:53:27;;;;;;;5.22;2.35;;;;;;;;;;4405886;32;19972;-64
2022/05/20 01:56:00;;;;;;;4.68;2.45;;;;;;;;;;4407640;32;20157;-64
2022/05/20 01:58:33;;;;;;;7.43;2.97;;;;;;;;;;4393658;32;20516;-63
2022/05/20 02:01:04;;;;;;;6.90;2.85;;;;;;;;;;4406582;32;20088;-63
2022/05/20 02:03:34;;;;;;;5.05;2.75;;;;;;;;;;4393572;32;20085;-63
2022/05/20 02:06:14;;;;;;;5.68;2.70;;;;;;;;;;4393689;32;20159;-63
2022/05/20 02:09:02;;;;;;;5.07;2.50;;;;;;;;;;4405876;32;20073;-63
2022/05/20 02:11:40;;;;;;;3.92;2.10;;;;;;;;;;4405661;32;20080;-64
2022/05/20 02:14:18;;;;;;;4.22;2.35;;;;;;;;;;4407486;32;20160;-64
2022/05/20 02:16:48;;;;;;;3.15;2.10;;;;;;;;;;4393115;32;20518;-64
2022/05/20 02:19:28;;;;;;;4.50;2.00;;;;;;;;;;4406017;32;20149;-63
2022/05/20 02:21:57;;;;;;;4.22;2.17;;;;;;;;;;4407021;32;20149;-64
2022/05/20 02:24:25;;;;;;;6.43;2.28;;;;;;;;;;4405383;32;20332;-65
2022/05/20 02:27:04;;;;;;;4.65;2.30;;;;;;;;;;4407397;32;20164;-63
2022/05/20 02:29:39;;;;;;;5.40;2.50;;;;;;;;;;4392893;32;20150;-63
2022/05/20 02:32:15;;;;;;;5.37;2.45;;;;;;;;;;4405299;32;20095;-64
2022/05/20 02:34:41;;;;;;;4.03;2.40;;;;;;;;;;4393065;32;20125;-64
2022/05/20 02:37:38;;;;;;;4.95;2.65;;;;;;;;;;4405443;32;20189;-64
2022/05/20 02:40:07;;;;;;;6.15;3.00;;;;;;;;;;4390273;32;20233;-64
2022/05/20 02:42:34;;;;;;;3.47;2.50;;;;;;;;;;4405224;32;20078;-63
2022/05/20 02:45:01;;;;;;;5.43;3.05;;;;;;;;;;4392787;32;20526;-62
2022/05/20 02:47:32;;;;;;;12.15;3.15;;;;;;;;;;4405532;32;20164;-63
2022/05/20 02:50:04;;;;;;;5.62;3.10;;;;;;;;;;4392741;32;20144;-63
2022/05/20 02:52:31;;;;;;;6.95;2.90;;;;;;;;;;4407240;32;20077;-62
2022/05/20 02:54:57;;;;;;;5.78;2.80;;;;;;;;;;4392818;32;20463;-64
2022/05/20 02:57:24;;;;;;;3.85;2.60;;;;;;;;;;4380650;32;20093;-65
2022/05/20 03:05:22;;;;;;;2.72;2.12;;;;;;;;;;4406801;32;20110;-63
2022/05/20 03:07:48;;;;;;;3.12;1.90;;;;;;;;;;4406869;32;20650;-65
2022/05/20 03:10:15;;;;;;;3.40;2.10;;;;;;;;;;4392151;32;20549;-63
2022/05/20 03:12:42;;;;;;;3.20;2.22;;;;;;;;;;4404972;32;20115;-63
2022/05/20 03:15:12;;;;;;;4.47;2.15;;;;;;;;;;4392556;32;20066;-64
2022/05/20 03:17:39;;;;;;;5.75;2.40;;;;;;;;;;4392339;32;20092;-64
2022/05/20 03:20:08;;;;;;;2.85;1.90;;;;;;;;;;4404949;32;20081;-63
2022/05/20 03:22:36;;;;;;;2.75;1.83;;;;;;;;;;4392676;32;20070;-65
2022/05/20 03:25:04;;;;;;;3.40;2.03;;;;;;;;;;4405105;32;20100;-65
2022/05/20 03:27:31;;;;;;;5.43;2.10;;;;;;;;;;4392795;32;20077;-63
2022/05/20 03:29:58;;;;;;;3.53;2.15;;;;;;;;;;4392179;32;20145;-64
2022/05/20 03:32:25;;;;;;;3.15;2.12;;;;;;;;;;4393189;32;20068;-64
2022/05/20 03:34:52;;;;;;;4.78;2.12;;;;;;;;;;4407096;32;20085;-65
2022/05/20 03:37:19;;;;;;;4.90;2.20;;;;;;;;;;4411033;32;20089;-63
2022/05/20 03:39:45;;;;;;;5.00;2.10;;;;;;;;;;4414307;32;20089;-63
2022/05/20 03:42:12;;;;;;;3.08;2.25;;;;;;;;;;4404966;32;20070;-63
2022/05/20 03:44:39;;;;;;;5.28;2.85;;;;;;;;;;4406667;32;20073;-63
2022/05/20 03:47:05;;;;;;;6.62;2.75;;;;;;;;;;4404840;32;20472;-63
2022/05/20 03:49:32;;;;;;;4.97;2.95;;;;;;;;;;4404993;32;20183;-64
2022/05/20 03:51:59;;;;;;;3.67;2.58;;;;;;;;;;4404824;32;20447;-65
2022/05/20 03:54:31;;;;;;;6.18;2.67;;;;;;;;;;4392042;32;20607;-63
2022/05/20 03:56:59;;;;;;;4.62;2.60;;;;;;;;;;4405296;32;20501;-63
2022/05/20 03:59:27;;;;;;;6.15;2.83;;;;;;;;;;4381797;32;20157;-64
2022/05/20 04:01:57;;;;;;;5.10;3.10;;;;;;;;;;4408930;32;20076;-63
2022/05/20 04:04:24;;;;;;;4.85;2.67;;;;;;;;;;4409823;32;20089;-63
2022/05/20 04:06:50;;;;;;;6.47;2.95;;;;;;;;;;4408258;32;20235;-65
2022/05/20 04:09:17;;;;;;;6.20;3.05;;;;;;;;;;4407790;32;20164;-65
2022/05/20 04:11:44;;;;;;;5.30;3.00;;;;;;;;;;4408528;32;20096;-63
2022/05/20 04:14:11;;;;;;;9.40;3.00;;;;;;;;;;4395623;32;20077;-65
2022/05/20 04:16:38;;;;;;;8.98;3.08;;;;;;;;;;4395412;32;20141;-64
2022/05/20 04:19:05;;;;;;;5.65;3.00;;;;;;;;;;4407694;32;20079;-63
2022/05/20 04:21:31;;;;;;;6.68;3.00;;;;;;;;;;4408783;32;20066;-63
2022/05/20 04:23:58;;;;;;;8.52;2.80;;;;;;;;;;4407708;32;20093;-63
2022/05/20 04:26:25;;;;;;;5.57;2.47;;;;;;;;;;4408875;32;20495;-64
2022/05/20 04:28:51;;;;;;;6.12;2.08;;;;;;;;;;4394943;32;20080;-63
2022/05/20 04:31:18;;;;;;;8.55;2.65;;;;;;;;;;4407089;32;20149;-65
2022/05/20 04:33:44;;;;;;;3.70;1.92;;;;;;;;;;4408531;32;20093;-63
2022/05/20 04:36:11;;;;;;;5.55;2.00;;;;;;;;;;4408708;32;20081;-63
2022/05/20 04:38:38;;;;;;;4.55;2.08;;;;;;;;;;4394760;32;20573;-63
2022/05/20 04:49:20;;;;;;;4.72;2.33;;;;;;;;;;4408787;32;20138;-64
2022/05/20 04:51:47;;;;;;;1.77;1.33;;;;;;;;;;4394205;32;20084;-65
2022/05/20 04:57:00;;;;;;;3.78;1.80;;;;;;;;;;4407044;32;20440;-64
2022/05/20 04:59:26;;;;;;;4.12;1.50;;;;;;;;;;4394159;32;20089;-64
2022/05/20 05:01:53;;;;;;;2.37;1.33;;;;;;;;;;4406642;32;20596;-63
2022/05/20 05:04:21;;;;;;;2.70;1.77;;;;;;;;;;4407347;32;20077;-62
2022/05/20 05:06:48;;;;;;;3.70;1.67;;;;;;;;;;4394047;32;20541;-63
2022/05/20 05:09:14;;;;;;;7.57;2.20;;;;;;;;;;4407233;32;20073;-63
2022/05/20 05:11:41;;;;;;;3.42;1.37;;;;;;;;;;4406878;32;20089;-65
2022/05/20 05:14:10;;;;;;;1.27;0.90;;;;;;;;;;4406846;32;20084;-62
2022/05/20 05:16:38;;;;;;;4.20;1.60;;;;;;;;;;4394445;32;20447;-62
2022/05/20 05:19:05;;;;;;;4.60;1.30;;;;;;;;;;4393920;32;20091;-65
2022/05/20 05:21:32;;;;;;;2.83;1.20;;;;;;;;;;4393784;32;20165;-64
2022/05/20 05:24:02;;;;;;;2.42;1.40;;;;;;;;;;4407767;32;20093;-64
2022/05/20 05:26:30;;;;;;;3.08;1.80;;;;;;;;;;4406900;32;20065;-63
2022/05/20 05:28:57;;;;;;;2.15;1.37;;;;;;;;;;4408195;32;20100;-63
2022/05/20 05:31:25;;;;;;;4.07;1.60;;;;;;;;;;4406776;32;20074;-65
2022/05/20 05:33:53;;;;;;;0.82;0.82;;;;;;;;;;4406774;32;20077;-63
2022/05/20 05:36:20;;;;;;;1.15;0.95;;;;;;;;;;4407662;32;20061;-64
2022/05/20 05:38:47;;;;;;;2.55;1.23;;;;;;;;;;4407760;32;20092;-63
2022/05/20 05:41:14;;;;;;;1.73;1.00;;;;;;;;;;4407906;32;20591;-63
2022/05/20 05:43:41;;;;;;;1.45;1.30;;;;;;;;;;4406991;32;20109;-62
2022/05/20 05:46:07;;;;;;;0.93;0.93;;;;;;;;;;4410565;32;20111;-62
2022/05/20 05:48:34;;;;;;;1.92;1.30;;;;;;;;;;4409104;32;20599;-63
2022/05/20 05:51:02;;;;;;;1.27;0.95;;;;;;;;;;4409082;32;20065;-64
2022/05/20 05:53:29;;;;;;;1.35;1.00;;;;;;;;;;4409776;32;20081;-64
2022/05/20 05:55:58;;;;;;;2.03;0.93;;;;;;;;;;4393561;32;20085;-64
2022/05/20 06:01:22;;;;;;;3.45;1.10;;;;;;;;;;3834002;37;20071;-64
2022/05/20 06:03:49;;;;;;;0.80;0.80;;;;;;;;;;4391340;32;20153;-64
2022/05/20 06:06:16;;;;;;;1.50;1.20;;;;;;;;;;4377938;32;20151;-63
2022/05/20 06:08:42;;;;;;;1.50;0.95;;;;;;;;;;4378176;32;20166;-63
2022/05/20 06:11:09;;;;;;;1.20;0.80;;;;;;;;;;4403390;32;20134;-64
2022/05/20 06:13:36;;;;;;;1.27;0.88;;;;;;;;;;4404885;32;20088;-64
2022/05/20 06:16:03;;;;;;;0.95;0.73;;;;;;;;;;4407920;32;20083;-63
2022/05/20 06:18:30;;;;;;;2.00;1.10;;;;;;;;;;4409859;32;20066;-63
2022/05/20 06:20:57;;;;;;;1.00;0.65;;;;;;;;;;4406520;32;20507;-62
2022/05/20 06:23:24;;;;;;;2.35;1.10;;;;;;;;;;4391349;32;20070;-62
2022/05/20 06:25:51;;;;;;;2.72;0.88;;;;;;;;;;4402666;32;20080;-62
2022/05/20 06:28:19;;;;;;;1.98;1.08;;;;;;;;;;4403903;32;20111;-63
2022/05/20 06:30:46;;;;;;;1.27;1.00;;;;;;;;;;4404039;32;20078;-62
2022/05/20 06:33:13;;;;;;;1.90;1.10;;;;;;;;;;4389811;32;20536;-63
2022/05/20 06:41:10;;;;;;;2.47;1.20;;;;;;;;;;4404240;32;20069;-63
2022/05/20 06:43:38;;;;;;;2.67;0.85;;;;;;;;;;4402306;32;20155;-62
2022/05/20 06:46:05;;;;;;;1.83;1.30;;;;;;;;;;4404044;32;20511;-64
2022/05/20 06:48:44;;;;;;;4.10;1.23;;;;;;;;;;4404068;32;20066;-64
2022/05/20 06:51:13;;;;;;;2.25;0.80;;;;;;;;;;4402159;32;20080;-63
2022/05/20 06:53:40;;;;;;;2.08;1.40;;;;;;;;;;4402895;32;20069;-62
2022/05/20 06:56:07;;;;;;;3.03;1.02;;;;;;;;;;4402612;32;20092;-64
2022/05/20 06:58:34;;;;;;;2.40;1.05;;;;;;;;;;4390212;32;20157;-64
2022/05/20 07:01:01;;;;;;;2.33;1.33;;;;;;;;;;4388925;32;20073;-63
2022/05/20 07:03:28;;;;;;;1.20;0.82;;;;;;;;;;4389386;32;20145;-63
2022/05/20 07:05:55;;;;;;;1.37;0.93;;;;;;;;;;4403974;32;20115;-64
2022/05/20 07:08:22;;;;;;;2.60;1.30;;;;;;;;;;4402039;32;20104;-63
2022/05/20 07:10:48;;;;;;;2.85;1.60;;;;;;;;;;4387477;32;20063;-63
2022/05/20 07:13:15;;;;;;;2.17;1.08;;;;;;;;;;4393442;32;20093;-63
2022/05/20 07:15:42;;;;;;;1.75;1.17;;;;;;;;;;4393264;32;20164;-63
2022/05/20 07:18:09;;;;;;;3.72;1.23;;;;;;;;;;4391646;32;20073;-63
2022/05/20 07:20:36;;;;;;;2.80;1.02;;;;;;;;;;4391897;32;20078;-63
2022/05/20 07:23:02;;;;;;;2.17;1.30;;;;;;;;;;4391753;32;20512;-62
2022/05/20 07:25:30;;;;;;;2.00;0.80;;;;;;;;;;4392169;32;20077;-63
2022/05/20 07:28:00;;;;;;;2.42;0.90;;;;;;;;;;4379429;32;20086;-63
2022/05/20 07:30:27;;;;;;;2.10;1.00;;;;;;;;;;4392363;32;20081;-63
2022/05/20 07:32:54;;;;;;;1.42;1.00;;;;;;;;;;4391259;32;20576;-63
2022/05/20 07:35:20;;;;;;;4.68;1.27;;;;;;;;;;4379010;32;20157;-63
2022/05/20 07:37:49;;;;;;;2.03;0.95;;;;;;;;;;4379156;32;20082;-62
2022/05/20 07:40:16;;;;;;;1.52;1.08;;;;;;;;;;4391774;32;20070;-63
2022/05/20 07:42:42;;;;;;;1.40;1.08;;;;;;;;;;4391895;32;20084;-62
2022/05/20 07:45:09;;;;;;;1.60;1.37;;;;;;;;;;4391588;32;20149;-63
2022/05/20 07:47:36;;;;;;;2.87;1.45;;;;;;;;;;4392042;32;20069;-63
2022/05/20 07:50:04;;;;;;;1.75;1.00;;;;;;;;;;4393357;32;20085;-62
2022/05/20 07:55:24;;;;;;;1.45;1.05;;;;;;;;;;4392974;32;20077;-62
2022/05/20 07:57:52;;;;;;;1.75;1.23;;;;;;;;;;4378975;32;20086;-62
2022/05/20 08:00:20;;;;;;;4.10;1.62;;;;;;;;;;4391959;32;20070;-63
2022/05/20 08:02:48;;;;;;;3.35;0.85;;;;;;;;;;4366291;32;20453;-63
2022/05/20 08:05:15;;;;;;;1.50;1.17;;;;;;;;;;4366613;32;20066;-63
2022/05/20 08:07:44;;;;;;;1.95;1.12;;;;;;;;;;4366808;32;20193;-62
2022/05/20 08:10:33;;;;;;;1.48;1.17;;;;;;;;;;4366616;32;20085;-62
2022/05/20 08:13:00;;;;;;;2.00;1.73;;;;;;;;;;4366584;32;20076;-64
2022/05/20 08:15:27;;;;;;;1.50;1.10;;;;;;;;;;4391650;32;20141;-62
2022/05/20 08:17:54;;;;;;;2.00;1.33;;;;;;;;;;4378776;32;20066;-63
2022/05/20 08:20:25;;;;;;;2.47;1.27;;;;;;;;;;4366078;32;20063;-63
2022/05/20 08:22:53;;;;;;;3.50;1.42;;;;;;;;;;4377843;32;20511;-62
2022/05/20 08:25:21;;;;;;;3.00;1.10;;;;;;;;;;4378659;32;20153;-63
2022/05/20 08:27:48;;;;;;;1.10;1.00;;;;;;;;;;4378625;32;20070;-63
2022/05/20 08:30:21;;;;;;;1.65;1.20;;;;;;;;;;4390906;32;20062;-63
2022/05/20 08:32:48;;;;;;;1.35;0.93;;;;;;;;;;4378412;32;20173;-63
2022/05/20 08:35:15;;;;;;;1.42;1.20;;;;;;;;;;4378676;32;20093;-63
2022/05/20 08:37:45;;;;;;;1.75;1.40;;;;;;;;;;4395002;32;20078;-62
2022/05/20 08:40:14;;;;;;;2.97;1.30;;;;;;;;;;4382210;32;20213;-63
2022/05/20 08:42:41;;;;;;;3.42;1.80;;;;;;;;;;4396157;32;20073;-62
2022/05/20 08:45:09;;;;;;;1.35;1.10;;;;;;;;;;4382927;32;20550;-62
2022/05/20 08:47:46;;;;;;;3.37;1.40;;;;;;;;;;4381145;32;20085;-62
2022/05/20 08:50:35;;;;;;;1.75;1.35;;;;;;;;;;4391275;32;20076;-62
2022/05/20 08:53:02;;;;;;;1.52;1.23;;;;;;;;;;4391329;32;20078;-63
2022/05/20 08:55:29;;;;;;;1.60;1.30;;;;;;;;;;4378501;32;20085;-63
2022/05/20 08:58:01;;;;;;;2.95;1.80;;;;;;;;;;4397864;32;20184;-63
2022/05/20 09:00:28;;;;;;;1.75;1.30;;;;;;;;;;4382970;32;20066;-62
2022/05/20 09:02:56;;;;;;;1.80;1.23;;;;;;;;;;4378516;32;20217;-63
2022/05/20 09:05:26;;;;;;;1.90;1.27;;;;;;;;;;4378101;32;20085;-63
2022/05/20 09:07:57;;;;;;;1.87;0.98;;;;;;;;;;4390401;32;20519;-64
2022/05/20 09:10:51;;;;;;;2.40;1.20;;;;;;;;;;4392147;32;20468;-62
2022/05/20 09:16:25;;;;;;;2.28;1.40;;;;;;;;;;4390434;32;20076;-63
2022/05/20 09:19:14;;;;;;;1.35;1.25;;;;;;;;;;4373503;32;20089;-66
2022/05/20 09:21:47;;;;;;;2.22;1.15;;;;;;;;;;4383007;32;20085;-66
2022/05/20 09:24:19;;;;;;;1.98;1.30;;;;;;;;;;4363111;32;20082;-65
2022/05/20 09:27:08;;;;;;;1.75;1.42;;;;;;;;;;4375218;32;20085;-65
2022/05/20 09:30:06;;;;;;;1.33;1.20;;;;;;;;;;4375000;32;20106;-66
2022/05/20 09:32:37;;;;;;;1.67;1.37;;;;;;;;;;4368446;32;20145;-65
2022/05/20 09:35:18;;;;;;;1.12;1.10;;;;;;;;;;4390515;32;20150;-65
2022/05/20 09:37:46;;;;;;;1.23;1.00;;;;;;;;;;4391070;32;20081;-65
2022/05/20 09:40:33;;;;;;;3.50;1.25;;;;;;;;;;4377811;32;20165;-64
2022/05/20 09:43:06;;;;;;;4.10;1.83;;;;;;;;;;4389877;32;20088;-64
2022/05/20 09:45:48;;;;;;;3.60;1.10;;;;;;;;;;4390253;32;20153;-65
2022/05/20 09:48:25;;;;;;;1.65;1.40;;;;;;;;;;4389920;32;20164;-65
2022/05/20 09:51:17;;;;;;;;;;;;;;;;;;4390336;32;20161;-66
2022/05/20 09:53:57;;;;;;;4.32;1.90;;;;;;;;;;4377413;32;19966;-63
2022/05/20 09:56:30;;;;;;;6.47;1.90;;;;;;;;;;4381343;32;20093;-63
2022/05/20 09:59:29;;;;;;;5.62;1.70;;;;;;;;;;4373052;32;20058;-63
2022/05/20 10:02:30;;;;;;;3.78;1.80;;;;;;;;;;4379483;32;20102;-63
2022/05/20 10:05:15;;;;;;;2.12;1.62;;;;;;;;;;4366195;32;20140;-64
2022/05/20 10:07:56;;;;;;;1.40;1.25;;;;;;;;;;4374895;32;20059;-63
2022/05/20 10:10:42;;;;;;;3.97;1.58;;;;;;;;;;4362434;32;20074;-63
2022/05/20 10:13:27;;;;;;;2.65;1.90;;;;;;;;;;4376135;32;20089;-63
2022/05/20 10:16:22;;;;;;;1.58;1.27;;;;;;;;;;4376627;32;20520;-63
2022/05/20 10:19:12;;;;;;;2.53;1.87;;;;;;;;;;4387702;32;20072;-63
2022/05/20 10:22:01;;;;;;;4.97;2.15;;;;;;;;;;4391345;32;20096;-63
2022/05/20 10:25:05;;;;;;;2.12;1.40;;;;;;;;;;4385988;32;20077;-63
2022/05/20 10:27:45;;;;;;;5.45;2.25;;;;;;;;;;4391091;32;20081;-63
2022/05/20 10:33:06;;;;;;;3.03;1.80;;;;;;;;;;4364117;32;20086;-62
2022/05/20 10:35:51;;;;;;;3.78;1.65;;;;;;;;;;4362836;32;20073;-62
2022/05/20 10:38:51;;;;;;;2.17;1.77;;;;;;;;;;4374690;32;20151;-63
2022/05/20 10:41:42;;;;;;;3.80;2.15;;;;;;;;;;4349517;32;20070;-63
2022/05/20 10:50:24;;;;;;;3.35;1.80;;;;;;;;;;4378296;32;20119;-63
2022/05/20 10:53:08;;;;;;;3.05;1.67;;;;;;;;;;4352423;32;20082;-63
2022/05/20 10:55:43;;;;;;;1.50;1.27;;;;;;;;;;4377371;32;20584;-62
2022/05/20 10:58:44;;;;;;;4.03;1.80;;;;;;;;;;4384007;32;20097;-63
2022/05/20 11:01:20;;;;;;;3.33;1.90;;;;;;;;;;4391934;32;20093;-63
2022/05/20 11:04:03;;;;;;;3.55;1.60;;;;;;;;;;4392350;32;20074;-63
2022/05/20 11:06:33;;;;;;;4.68;1.70;;;;;;;;;;4364802;32;20150;-63
2022/05/20 11:09:14;;;;;;;3.22;2.15;;;;;;;;;;4364253;32;20078;-63
2022/05/20 11:11:47;;;;;;;2.80;1.62;;;;;;;;;;4377370;32;20065;-63
2022/05/20 11:14:31;;;;;;;4.40;1.80;;;;;;;;;;4377267;32;20150;-63
2022/05/20 11:17:07;;;;;;;1.77;1.45;;;;;;;;;;4377117;32;20082;-63
2022/05/20 11:20:03;;;;;;;3.05;1.67;;;;;;;;;;4376816;32;20078;-63
2022/05/20 11:23:01;;;;;;;4.55;2.47;;;;;;;;;;4377940;32;20132;-62
2022/05/20 11:25:31;;;;;;;4.12;2.78;;;;;;;;;;4379574;32;20505;-63
2022/05/20 11:28:16;;;;;;;4.97;2.20;;;;;;;;;;4392501;32;20078;-64
2022/05/20 11:31:20;;;;;;;4.15;2.00;;;;;;;;;;4385618;32;20152;-63
2022/05/20 11:34:00;;;;;;;4.68;2.58;;;;;;;;;;4381259;32;20490;-62
2022/05/20 11:37:04;;;;;;;12.45;2.33;;;;;;;;;;4371758;32;20070;-62
2022/05/20 11:39:40;;;;;;;4.20;2.30;;;;;;;;;;4393268;32;20537;-63
2022/05/20 11:42:19;;;;;;;4.60;1.83;;;;;;;;;;4391380;32;20069;-63
2022/05/20 11:45:10;;;;;;;2.35;1.40;;;;;;;;;;4377635;32;20074;-67
2022/05/20 11:47:47;;;;;;;3.12;1.70;;;;;;;;;;4377696;32;20058;-63
2022/05/20 11:50:42;;;;;;;3.15;2.10;;;;;;;;;;4381690;32;20073;-63
2022/05/20 11:53:23;;;;;;;3.12;1.85;;;;;;;;;;4392017;32;20162;-65
2022/05/20 11:56:25;;;;;;;4.95;2.20;;;;;;;;;;4384516;32;20070;-63
2022/05/20 11:59:19;;;;;;;5.03;1.92;;;;;;;;;;4364649;32;20097;-63
2022/05/20 12:01:51;;;;;;;3.70;1.85;;;;;;;;;;4360151;32;20097;-63
2022/05/20 12:04:20;;;;;;;4.60;1.90;;;;;;;;;;4377301;32;20065;-68
2022/05/20 12:07:09;;;;;;;4.97;2.03;;;;;;;;;;4375622;32;20177;-64
2022/05/20 12:09:40;;;;;;;3.70;2.00;;;;;;;;;;4379331;32;20444;-63
2022/05/20 12:12:17;;;;;;;5.37;2.42;;;;;;;;;;4379977;32;20096;-63
2022/05/20 12:15:04;;;;;;;5.00;1.73;;;;;;;;;;4376193;32;20180;-63
2022/05/20 12:17:34;;;;;;;3.42;1.80;;;;;;;;;;4378277;32;20071;-64
2022/05/20 12:25:58;;;;;;;2.45;1.52;;;;;;;;;;4372940;32;20157;-63
2022/05/20 12:28:24;;;;;;;5.15;1.92;;;;;;;;;;4382583;32;20086;-63
2022/05/20 12:31:12;;;;;;;4.32;2.25;;;;;;;;;;4379713;32;20156;-64
2022/05/20 12:33:57;;;;;;;6.22;2.15;;;;;;;;;;4389443;32;20448;-64
2022/05/20 12:36:29;;;;;;;4.12;1.52;;;;;;;;;;4371070;32;20123;-64
2022/05/20 12:39:08;;;;;;;3.22;1.80;;;;;;;;;;4381248;32;20097;-64
2022/05/20 12:41:49;;;;;;;2.67;1.85;;;;;;;;;;4391751;32;20074;-64
2022/05/20 12:44:22;;;;;;;3.78;2.00;;;;;;;;;;4391956;32;20137;-63
2022/05/20 12:47:05;;;;;;;1.95;1.65;;;;;;;;;;4391187;32;20435;-63
2022/05/20 12:49:55;;;;;;;3.30;1.30;;;;;;;;;;4390822;32;20085;-64
2022/05/20 12:52:33;;;;;;;2.08;1.00;;;;;;;;;;4388120;32;20143;-63
2022/05/20 12:55:15;;;;;;;2.12;1.45;;;;;;;;;;4366206;32;20092;-63
2022/05/20 12:57:54;;;;;;;2.17;1.12;;;;;;;;;;4390765;32;20077;-64
2022/05/20 13:00:41;;;;;;;7.90;1.83;;;;;;;;;;4366098;32;20085;-64
2022/05/20 13:03:39;;;;;;;1.55;1.30;;;;;;;;;;4377451;32;20070;-64
2022/05/20 13:06:21;;;;;;;5.57;1.70;;;;;;;;;;4377895;32;20517;-63
2022/05/20 13:08:56;;;;;;;3.15;1.75;;;;;;;;;;4391914;32;20089;-63
2022/05/20 13:11:23;;;;;;;2.28;1.52;;;;;;;;;;4369124;32;20512;-64
2022/05/20 13:13:53;;;;;;;1.20;1.10;;;;;;;;;;4368153;32;20105;-63
2022/05/20 13:16:21;;;;;;;3.25;1.85;;;;;;;;;;4375125;32;20063;-64
2022/05/20 13:18:59;;;;;;;1.85;1.30;;;;;;;;;;4382092;32;20117;-63
2022/05/20 13:21:27;;;;;;;3.00;1.50;;;;;;;;;;4382077;32;20074;-63
2022/05/20 13:23:54;;;;;;;1.80;1.30;;;;;;;;;;4375212;32;20093;-63
2022/05/20 13:26:41;;;;;;;2.60;1.40;;;;;;;;;;4383169;32;20517;-64
2022/05/20 13:29:17;;;;;;;;;;;;;;;;;;4363729;32;20137;-64
2022/05/20 13:31:44;;;;;;;3.07;1.40;;;;;;;;;;4374892;32;20452;-63
2022/05/20 13:34:12;;;;;;;5.28;2.05;;;;;;;;;;4376384;32;20539;-63
2022/05/20 13:36:43;;;;;;;3.12;1.90;;;;;;;;;;4374477;32;20064;-66
2022/05/20 13:39:19;;;;;;;4.82;2.05;;;;;;;;;;4375269;32;20085;-63
2022/05/20 13:41:46;;;;;;;2.80;1.90;;;;;;;;;;4368660;32;20488;-64
2022/05/20 13:44:13;;;;;;;4.25;1.92;;;;;;;;;;4383687;32;20171;-63
2022/05/20 13:49:31;;;;;;;3.03;1.58;;;;;;;;;;4376990;32;20456;-63
2022/05/20 13:51:58;;;;;;;3.97;1.67;;;;;;;;;;4381432;32;20149;-64
2022/05/20 13:54:51;;;;;;;2.53;1.48;;;;;;;;;;4381075;32;20105;-63
2022/05/20 13:57:45;;;;;;;2.22;1.25;;;;;;;;;;4389869;32;20070;-62
2022/05/20 14:00:32;;;;;;;2.05;1.58;;;;;;;;;;4387781;32;20109;-63
2022/05/20 14:03:28;;;;;;;2.03;1.02;;;;;;;;;;4378178;32;20085;-62
2022/05/20 14:06:10;;;;;;;3.40;1.77;;;;;;;;;;4390067;32;20085;-63
2022/05/20 14:08:41;;;;;;;3.62;1.83;;;;;;;;;;4380991;32;20142;-63
2022/05/20 14:11:13;;;;;;;2.30;1.30;;;;;;;;;;4375604;32;20062;-63
2022/05/20 14:13:41;;;;;;;3.70;1.77;;;;;;;;;;4370543;32;20535;-64
2022/05/20 14:16:17;;;;;;;3.28;1.40;;;;;;;;;;4361844;32;20073;-63
2022/05/20 14:18:46;;;;;;;2.47;1.40;;;;;;;;;;4350954;32;20141;-64
2022/05/20 14:21:29;;;;;;;1.80;1.48;;;;;;;;;;4378964;32;20123;-63
2022/05/20 14:24:00;;;;;;;2.37;1.40;;;;;;;;;;4387852;32;20101;-65
2022/05/20 14:26:26;;;;;;;3.00;1.30;;;;;;;;;;4365994;32;20185;-65
2022/05/20 14:28:56;;;;;;;1.60;1.10;;;;;;;;;;4378370;32;20098;-64
2022/05/20 14:31:33;;;;;;;2.42;1.70;;;;;;;;;;4378157;32;20094;-65
2022/05/20 14:34:11;;;;;;;4.55;1.70;;;;;;;;;;4377922;32;20452;-64
2022/05/20 14:36:39;;;;;;;2.55;0.93;;;;;;;;;;4365324;32;20605;-65
2022/05/20 14:39:16;;;;;;;1.20;1.08;;;;;;;;;;4377449;32;20209;-63
2022/05/20 14:41:43;;;;;;;3.35;0.90;;;;;;;;;;4377542;32;20182;-63
2022/05/20 14:44:17;;;;;;;1.17;0.80;;;;;;;;;;4364548;32;20121;-64
2022/05/20 14:47:15;;;;;;;1.05;0.77;;;;;;;;;;4363603;32;20078;-64
2022/05/20 14:49:55;;;;;;;2.90;1.20;;;;;;;;;;4365417;32;20153;-63
2022/05/20 14:52:55;;;;;;;2.30;1.27;;;;;;;;;;4364661;32;20530;-64
2022/05/20 14:55:25;;;;;;;2.80;1.30;;;;;;;;;;4378251;32;20158;-63
2022/05/20 14:58:04;;;;;;;3.10;1.25;;;;;;;;;;4377046;32;20070;-64
2022/05/20 15:00:31;;;;;;;1.48;1.37;;;;;;;;;;4364233;32;20078;-63
2022/05/20 15:02:59;;;;;;;3.65;2.05;;;;;;;;;;4377134;32;20075;-63
2022/05/20 15:05:28;;;;;;;1.50;1.20;;;;;;;;;;4377064;32;20566;-63
2022/05/20 15:08:01;;;;;;;1.25;1.10;;;;;;;;;;4377698;32;20232;-63
2022/05/20 15:10:28;;;;;;;5.85;1.42;;;;;;;;;;4378532;32;20493;-64
2022/05/20 15:12:55;;;;;;;2.33;0.98;;;;;;;;;;4377786;32;20074;-63
2022/05/20 15:15:22;;;;;;;2.72;1.20;;;;;;;;;;4376999;32;20172;-63
2022/05/20 15:18:00;;;;;;;2.12;0.98;;;;;;;;;;4376950;32;20070;-63
2022/05/20 15:20:28;;;;;;;3.33;1.10;;;;;;;;;;4378792;32;20157;-63
2022/05/20 15:22:55;;;;;;;1.70;1.10;;;;;;;;;;4364638;32;20098;-64
2022/05/20 15:25:22;;;;;;;0.65;0.55;;;;;;;;;;4377133;32;20158;-63
2022/05/20 15:27:49;;;;;;;1.50;0.93;;;;;;;;;;4376922;32;20078;-64
2022/05/20 15:35:41;;;;;;;5.22;1.08;;;;;;;;;;4420376;32;20152;-64
2022/05/20 15:38:10;;;;;;;1.85;1.10;;;;;;;;;;4419493;32;20165;-65
2022/05/20 15:40:40;;;;;;;1.60;0.93;;;;;;;;;;4406095;32;20077;-64
2022/05/20 15:43:07;;;;;;;4.62;1.10;;;;;;;;;;4405700;32;20077;-63
2022/05/20 15:45:34;;;;;;;2.35;1.25;;;;;;;;;;4405528;32;20089;-64
2022/05/20 15:48:00;;;;;;;2.95;1.25;;;;;;;;;;4405498;32;20075;-64
2022/05/20 15:50:27;;;;;;;1.30;1.15;;;;;;;;;;4405935;32;20162;-64
2022/05/20 15:53:03;;;;;;;1.85;1.30;;;;;;;;;;4393271;32;20142;-64
2022/05/20 15:55:36;;;;;;;3.83;1.58;;;;;;;;;;4392974;32;20080;-64
2022/05/20 15:58:10;;;;;;;2.00;1.52;;;;;;;;;;4380367;32;20078;-63
2022/05/20 16:00:37;;;;;;;2.50;1.30;;;;;;;;;;4405667;32;20087;-63
2022/05/20 16:03:04;;;;;;;1.17;0.77;;;;;;;;;;4405702;32;20149;-64
2022/05/20 16:05:31;;;;;;;4.65;1.40;;;;;;;;;;4405225;32;20165;-63
2022/05/20 16:08:01;;;;;;;2.30;1.60;;;;;;;;;;4405316;32;20083;-63
2022/05/20 16:10:38;;;;;;;1.90;0.77;;;;;;;;;;4393166;32;20080;-63
2022/05/20 16:13:06;;;;;;;3.40;1.60;;;;;;;;;;4405377;32;20072;-63